Curry Rivel, United Kingdom
Current Conditions -  °F | °C
As of 7:50 AM on Sunday 21 Dec 2014 (Local Time) from EGDY Reporting Station
Drizzle Drizzle  
Wind Chill: 39°   Ceiling: 3300
Heat Index: 45°   Visibility: 1.8mi
Dew Point: 43°   Wind: 10mph
Humidity: 93%   Direction: 220°SW
Pressure: 30.39"   Gusts: NA
Location:  51.02°N, 2.87°W
Report Text: EGDY 210750Z AUTO 22009KT 3000 -DZ SCT017/// BKN033/// 07/06 Q1029
Loading
Personal Weather Stations






























Interactive Weather Map New forecast layout! Learn more

10-Day Weather Forecast

Advertisements
Track Severe Weather on mobile